Honolulu, Hawaii
Current Conditions -  °F | °C
As of 9:53 PM on Sunday 21 Dec 2014 (Local Time) from PHNL Reporting Station
Scattered Clouds Scattered Clouds  
Wind Chill: 74°   Ceiling: Unl
Heat Index: 74°   Visibility: 10mi
Dew Point: 65°   Wind: 6mph
Humidity: 73%   Direction: 340°NNW
Pressure: 30.01"   Gusts: NA
Location:  21.3°N, 157.85°W
Report Text: PHNL 220753Z 34005KT 10SM FEW036 SCT044 23/18 A3001 RMK AO2 SLP162 T02330183
Loading
Personal Weather Stations






























Interactive Weather Map New forecast layout! Learn more

10-Day Weather Forecast

Advertisements
Track Severe Weather on mobile